Skip to main content

NOAA/GLERL Met Station at Chicago, IL

Previous 5 days (top of hour only)
See also Previous 3 Hours (2 minute increments)
Jump down to Data
Switch to [English][Metric]
Zoom: Click and drag, Pan: shift-click and drag, Unzoom: double-click, Unzoom All




Note: Speed = mean wind during 2-minute period at top of hour,
Gust = max wind during 2-minute period at top of hour,
Peak = max wind during entire hour.
• See also 5-day windrose plot


NOAA/GLERL Met Station at Chicago, IL

Previous 5 days (top of hour only)
See also Previous 3 Hours (2 minute increments)
Jump up to Graphs
Switch to [English][Metric]
                  Wind  Wind  Wind   Air   Dew   Rel
                   Spd   Gst   Dir  Temp    Pt   Hum
YYYY-MM-DD   CDT   kts   kts   deg     F     F     %
2020-09-24 00:00 -99.0 -99.0   -99   0.0   0.0   0.0
2020-09-23 05:00  11.9  12.6   260  66.0  59.5  79.3
2020-09-23 04:00  11.3  12.1   265  65.8  59.6  80.1
2020-09-23 03:00  10.1  11.5   268  67.3  59.7  76.2
2020-09-23 02:00  15.2  17.1   255  68.9  59.4  71.3
2020-09-23 01:00  11.7  12.4   262  69.3  59.1  69.6
2020-09-23 00:00  13.4  14.6   259  70.3  59.6  68.3
2020-09-22 23:00  15.2  16.3   256  71.6  59.4  65.0
2020-09-22 22:00  13.4  15.7   236  73.8  58.6  58.5
2020-09-22 21:00   9.5  10.9   201  73.8  58.5  58.3
2020-09-22 20:00   8.9   9.1   204  75.4  57.6  53.5
2020-09-22 19:00  10.3  11.3   209  76.1  57.9  52.7
2020-09-22 18:00  10.7  11.7   211  76.8  57.2  50.1
2020-09-22 17:00   8.6   9.3   204  77.2  56.0  47.5
2020-09-22 16:00   4.1   6.2   159  75.6  59.2  56.4
2020-09-22 15:00   2.5   4.5   161  75.6  59.4  56.7
2020-09-22 14:00   4.9   5.6   202  74.3  57.8  55.8
2020-09-22 13:00   5.2   6.6   176  72.0  60.1  65.9
2020-09-22 12:00   5.4   5.8   191  69.8  56.6  62.5
2020-09-22 11:00   4.7   5.1   245  68.0  54.0  60.5
2020-09-22 10:00   5.8   6.4   263  66.2  54.6  65.7
2020-09-22 09:00   9.3  10.3   255  64.0  53.3  67.8
2020-09-22 08:00  10.1  11.1   211  61.5  53.9  75.7
2020-09-22 07:00  12.2  13.0   204  62.2  52.5  70.1
2020-09-22 06:00  10.9  13.6   198  62.4  51.8  67.9
2020-09-22 05:00  11.5  13.0   190  62.6  51.4  66.5
2020-09-22 04:00  10.9  11.9   181  63.1  51.3  64.8
2020-09-22 03:00  10.7  11.5   178  64.0  51.9  64.2
2020-09-22 02:00   9.1   9.7   184  64.4  51.2  61.9
2020-09-22 01:00  11.7  12.1   189  65.3  50.7  58.7
2020-09-22 00:00  14.4  15.6   183  66.7  52.5  59.7
2020-09-21 23:00  12.2  13.8   182  67.8  52.3  57.2
2020-09-21 22:00   7.0   7.8   167  66.7  63.0  87.5
2020-09-21 21:00   3.5   4.9   152  66.6  63.6  90.1
2020-09-21 20:00   7.2   7.6   103  66.4  61.7  84.8
2020-09-21 19:00   7.8   8.4   102  66.6  61.5  83.6
2020-09-21 18:00  10.3  10.9    94  66.6  59.3  77.2
2020-09-21 17:00  10.9  11.7    96  66.9  59.1  75.6
2020-09-21 16:00  10.3  10.9   106  68.2  55.9  64.4
2020-09-21 15:00  11.1  12.1   108  67.3  54.1  62.2
2020-09-21 14:00  13.6  14.6   120  66.9  52.7  59.9
2020-09-21 13:00  12.1  13.6   139  66.6  52.6  60.3
2020-09-21 12:00  10.5  12.6   168  65.7  50.1  56.8
2020-09-21 11:00  10.5  11.3   177  63.7  49.2  58.9
2020-09-21 10:00  11.7  12.8   187  61.3  48.7  62.8
2020-09-21 09:00  12.6  14.2   180  58.8  46.3  62.8
2020-09-21 08:00  11.3  13.0   183  58.3  47.6  67.2
2020-09-21 07:00  13.0  14.0   178  58.6  47.3  65.7
2020-09-21 06:00  19.6  20.8   177  58.5  44.6  59.7
2020-09-21 05:00  17.7  20.2   172  60.4  48.9  65.4
2020-09-21 04:00  18.1  21.2   168  61.2  48.2  62.0
2020-09-21 03:00  16.3  19.8   162  61.3  48.8  63.0
2020-09-21 02:00  14.2  22.2   157  62.4  49.3  61.7
2020-09-21 01:00  20.0  24.9   147  63.9  48.2  56.2
2020-09-21 00:00  18.1  21.8   146  65.7  47.7  51.8
2020-09-20 23:00  19.1  22.4   139  66.7  50.0  54.4
2020-09-20 22:00  19.2  21.0   136  67.6  49.7  52.2
2020-09-20 21:00  16.3  17.9   138  68.2  50.9  53.5
2020-09-20 20:00  10.3  11.1   120  67.8  58.7  72.2
2020-09-20 19:00  12.6  13.2    91  67.3  57.2  69.7
2020-09-20 18:00  10.9  11.9    85  67.1  52.5  59.0
2020-09-20 17:00  13.6  14.8    78  66.6  50.3  55.3
2020-09-20 16:00  10.3  10.7    78  66.4  48.5  52.0
2020-09-20 15:00  10.9  11.9    93  65.8  46.1  48.4
2020-09-20 14:00  10.1  10.7   107  65.5  47.4  51.6
2020-09-20 13:00  13.2  15.0   143  64.6  45.4  49.4
2020-09-20 12:00  14.0  15.4   136  63.5  45.8  52.1
2020-09-20 11:00  10.1  14.4   151  62.2  46.7  56.3
2020-09-20 10:00   8.7  11.9   167  60.6  47.0  60.4
2020-09-20 09:00  10.9  12.4   185  58.8  48.3  67.8
2020-09-20 08:00   9.3  12.4   170  59.7  48.9  67.0
2020-09-20 07:00  10.7  11.9   184  57.9  49.9  74.4
2020-09-20 06:00  14.4  15.7   185  59.2  43.0  54.7
2020-09-20 05:00  12.4  15.0   168  61.0  44.9  55.1
2020-09-20 04:00  11.1  14.2   153  61.7  47.1  58.4
2020-09-20 03:00  13.0  13.6   132  61.7  49.3  63.3
2020-09-20 02:00  10.7  12.2   121  62.4  49.7  62.8
2020-09-20 01:00  11.9  13.2   127  62.6  47.9  58.2
2020-09-20 00:00  10.5  12.2   118  62.6  47.9  58.2
2020-09-19 23:00   8.2   9.1   128  62.6  44.2  50.6
2020-09-19 22:00   6.6   7.2   108  62.2  44.1  51.1
2020-09-19 21:00   8.2   9.1   121  61.9  45.2  53.9
2020-09-19 20:00   8.9   9.5    98  61.5  45.0  54.3
2020-09-19 19:00   6.6   8.2   112  60.8  42.5  50.5
2020-09-19 18:00   9.9  11.1    98  60.4  43.6  53.4
2020-09-19 17:00  10.1  13.0    90  59.4  42.0  52.1
2020-09-19 16:00  12.2  13.0    90  58.8  41.5  52.2
2020-09-19 15:00  14.2  16.1    89  58.3  41.5  53.2
2020-09-19 14:00  13.6  15.6   101  57.9  40.8  52.4
2020-09-19 13:00  11.3  12.2   113  57.9  39.8  50.5
2020-09-19 12:00   5.2   7.6   169  57.9  37.4  45.9
2020-09-19 11:00   5.1   6.8   182  57.2  41.9  56.2
2020-09-19 10:00  10.3  11.7   196  55.0  40.6  57.8
2020-09-19 09:00  12.1  14.4   184  54.1  43.7  67.4
2020-09-19 08:00  14.4  16.9   193  54.3  44.9  70.1
2020-09-19 07:00  19.4  21.0   178  54.3  44.3  68.7
2020-09-19 06:00  18.9  20.2   174  55.2  44.0  65.5
2020-09-19 05:00  14.6  17.7   166  56.5  43.0  60.2
2020-09-19 04:00  10.7  12.1   117  57.6  41.7  55.0
2020-09-19 03:00  13.8  15.6   127  57.7  41.7  54.8
2020-09-19 02:00   8.6  10.5   108  58.3  42.3  54.9
2020-09-19 01:00  11.9  13.6    89  58.5  43.2  56.5
2020-09-19 00:00   5.2   7.4    69  57.9  41.7  54.4
2020-09-18 23:00   8.7  10.5    50  57.7  42.4  56.2
2020-09-18 22:00   9.5  10.7    48  57.4  41.2  54.3
2020-09-18 21:00   8.4  10.7    44  57.0  40.5  53.7
2020-09-18 20:00  11.5  14.2    24  56.7  42.1  57.8
2020-09-18 19:00  13.0  14.8     6  55.8  39.0  53.0